Time;durP1;ratioP1;P1;durP2;ratioP2;P2;SDS_P1;SDS_P2;PMS_P1;PMS_P2;Temp;Humidity;BMP_temperature;BMP_pressure;BME280_temperature;BME280_humidity;BME280_pressure;Samples;Min_cycle;Max_cycle;Signal;HPM_P1;HPM_P2
2020/12/20 00:00:34;;;;;;;4.72;3.05;;;;;;;7.22;100.00;100914.38;5223081;28;20036;-78
2020/12/20 00:03:04;;;;;;;7.65;3.28;;;;;;;7.15;100.00;100911.06;5222510;28;20843;-78
2020/12/20 00:05:35;;;;;;;5.10;3.00;;;;;;;7.11;100.00;100917.19;5226883;28;20044;-78
2020/12/20 00:08:05;;;;;;;6.50;3.13;;;;;;;7.02;100.00;100919.94;5225272;28;20029;-79
2020/12/20 00:10:35;;;;;;;6.57;3.10;;;;;;;6.93;100.00;100928.72;5227871;28;20032;-78
2020/12/20 00:13:05;;;;;;;4.90;2.80;;;;;;;6.94;100.00;100929.59;5227303;28;20017;-78
2020/12/20 00:15:36;;;;;;;5.80;2.92;;;;;;;6.96;100.00;100925.22;5227338;28;20166;-79
2020/12/20 00:18:06;;;;;;;5.25;2.75;;;;;;;6.94;100.00;100929.59;5228799;28;20032;-79
2020/12/20 00:20:36;;;;;;;4.72;2.92;;;;;;;7.08;100.00;100935.44;5229216;28;20147;-77
2020/12/20 00:23:07;;;;;;;5.20;2.95;;;;;;;7.07;100.00;100933.72;5229817;28;20039;-78
2020/12/20 00:25:37;;;;;;;5.78;2.70;;;;;;;6.99;100.00;100938.16;5228192;28;20020;-79
2020/12/20 00:28:07;;;;;;;4.60;2.70;;;;;;;6.97;100.00;100939.94;5226194;28;20047;-79
2020/12/20 00:30:37;;;;;;;6.07;2.80;;;;;;;6.97;100.00;100932.13;5225828;28;20029;-77
2020/12/20 00:33:08;;;;;;;3.80;2.33;;;;;;;6.99;100.00;100931.25;5225399;28;20112;-78
2020/12/20 00:35:38;;;;;;;5.10;2.55;;;;;;;6.99;100.00;100935.56;5226069;28;20572;-77
2020/12/20 00:38:08;;;;;;;5.60;2.83;;;;;;;7.06;100.00;100943.25;5226440;28;20020;-79
2020/12/20 00:40:38;;;;;;;5.35;2.97;;;;;;;7.17;100.00;100943.94;5225805;28;20036;-78
2020/12/20 00:43:09;;;;;;;7.40;3.15;;;;;;;7.14;100.00;100940.53;5224515;28;20017;-78
2020/12/20 00:45:39;;;;;;;4.85;3.00;;;;;;;7.11;100.00;100945.78;5226511;28;20056;-78
2020/12/20 00:48:09;;;;;;;5.13;2.80;;;;;;;7.09;100.00;100940.59;5226764;28;20403;-79
2020/12/20 00:50:39;;;;;;;5.38;2.97;;;;;;;7.07;100.00;100931.97;5226180;28;20466;-77
2020/12/20 00:53:10;;;;;;;5.43;3.10;;;;;;;7.09;100.00;100938.00;5226948;28;20029;-79
2020/12/20 00:55:40;;;;;;;4.78;2.88;;;;;;;7.08;100.00;100930.25;5226321;28;20032;-78
2020/12/20 00:58:10;;;;;;;5.70;2.97;;;;;;;7.05;100.00;100940.66;5226300;28;20051;-78
2020/12/20 01:00:40;;;;;;;6.40;2.90;;;;;;;7.08;100.00;100940.63;5226584;28;20267;-79
2020/12/20 01:03:11;;;;;;;5.68;3.05;;;;;;;7.02;100.00;100941.59;5225724;28;20094;-79
2020/12/20 01:05:41;;;;;;;4.45;2.70;;;;;;;7.03;100.00;100939.81;5228425;28;20077;-80
2020/12/20 01:08:12;;;;;;;4.60;3.03;;;;;;;7.09;100.00;100945.78;5229592;28;20020;-80
2020/12/20 01:10:42;;;;;;;6.07;3.63;;;;;;;7.42;100.00;100947.84;5226696;28;20028;-77
2020/12/20 01:13:12;;;;;;;6.82;3.88;;;;;;;7.63;100.00;100937.94;5225015;28;20048;-77
2020/12/20 01:15:42;;;;;;;6.97;3.85;;;;;;;7.73;100.00;100936.88;5223627;28;20037;-78
2020/12/20 01:18:13;;;;;;;7.05;3.70;;;;;;;7.50;100.00;100936.44;5225527;28;20044;-77
2020/12/20 01:20:43;;;;;;;7.30;3.75;;;;;;;7.28;100.00;100946.38;5225582;28;20029;-78
2020/12/20 01:23:13;;;;;;;6.68;3.75;;;;;;;7.32;100.00;100946.31;5223030;28;20115;-78
2020/12/20 01:25:43;;;;;;;6.15;3.83;;;;;;;7.32;100.00;100946.31;5224919;28;20053;-78
2020/12/20 01:28:14;;;;;;;6.25;4.07;;;;;;;7.16;100.00;100952.63;5225248;28;20024;-78
2020/12/20 01:30:44;;;;;;;6.43;3.60;;;;;;;7.40;100.00;100945.28;5225618;28;20032;-78
2020/12/20 01:33:14;;;;;;;6.47;3.72;;;;;;;7.29;100.00;100951.53;5225758;28;20115;-79
2020/12/20 01:35:45;;;;;;;7.20;3.60;;;;;;;7.47;100.00;100939.09;5225684;28;20440;-79
2020/12/20 01:38:15;;;;;;;8.65;3.45;;;;;;;7.42;100.00;100943.53;5226287;28;20021;-78
2020/12/20 01:40:53;;;;;;;5.82;3.78;;;;;;;7.35;100.00;100936.69;5224465;28;20040;-78
2020/12/20 01:43:24;;;;;;;7.65;3.75;;;;;;;7.36;100.00;100938.41;5219495;28;20078;-77
2020/12/20 01:45:54;;;;;;;6.07;4.10;;;;;;;7.10;100.00;100949.25;5224028;28;20017;-78
2020/12/20 01:48:24;;;;;;;7.70;4.32;;;;;;;6.95;100.00;100949.50;5224585;28;20024;-79
2020/12/20 01:50:54;;;;;;;7.95;4.45;;;;;;;6.97;100.00;100952.94;5224305;28;20475;-78
2020/12/20 01:53:25;;;;;;;7.45;4.22;;;;;;;6.98;100.00;100945.13;5221545;28;20040;-77
2020/12/20 01:55:59;;;;;;;7.18;4.10;;;;;;;6.92;100.00;100963.38;5214649;28;20060;-77
2020/12/20 01:58:31;;;;;;;6.93;4.10;;;;;;;6.98;100.00;100965.03;5226413;28;20087;-78
2020/12/20 02:01:06;;;;;;;7.88;4.70;;;;;;;7.11;100.00;100961.38;5220663;28;20055;-78
2020/12/20 02:03:36;;;;;;;7.00;4.47;;;;;;;6.98;100.00;100965.03;5238608;28;20029;-78
2020/12/20 02:06:12;;;;;;;8.63;4.30;;;;;;;7.02;100.00;100962.38;5223447;28;20024;-77
2020/12/20 02:08:42;;;;;;;6.90;4.07;;;;;;;6.94;100.00;100961.63;5223770;28;20399;-77
2020/12/20 02:11:17;;;;;;;6.90;4.18;;;;;;;6.92;100.00;100965.13;5223509;28;20029;-78
2020/12/20 02:13:49;;;;;;;10.68;4.63;;;;;;;6.91;100.00;100963.41;5223153;28;20051;-77
2020/12/20 02:16:22;;;;;;;9.77;5.00;;;;;;;6.86;100.00;100966.06;5223465;28;20149;-78
2020/12/20 02:18:52;;;;;;;8.05;4.70;;;;;;;6.84;100.00;100967.84;5223266;28;20311;-77
2020/12/20 02:21:23;;;;;;;6.90;4.50;;;;;;;6.86;100.00;100973.00;5223317;28;20017;-78
2020/12/20 02:23:53;;;;;;;9.35;4.60;;;;;;;6.90;100.00;100967.75;5223178;28;20031;-78
2020/12/20 02:26:24;;;;;;;6.38;4.32;;;;;;;7.00;100.00;100960.66;5223927;28;20020;-78
2020/12/20 02:28:56;;;;;;;7.55;4.65;;;;;;;7.11;100.00;100966.56;5224171;28;20621;-79
2020/12/20 02:31:28;;;;;;;8.35;5.30;;;;;;;7.10;100.00;100964.84;5224188;28;20158;-79
2020/12/20 02:33:58;;;;;;;7.95;5.15;;;;;;;7.18;100.00;100970.78;5223525;28;20028;-78
2020/12/20 02:36:29;;;;;;;7.57;4.57;;;;;;;7.05;100.00;100964.03;5224139;28;20364;-78
2020/12/20 02:38:59;;;;;;;7.88;4.95;;;;;;;6.95;100.00;100970.28;5223777;28;20053;-77
2020/12/20 02:41:31;;;;;;;7.88;4.85;;;;;;;6.94;100.00;100960.78;5224185;28;20028;-77
2020/12/20 02:44:02;;;;;;;8.82;5.30;;;;;;;6.82;100.00;100956.63;5221706;28;20024;-78
2020/12/20 02:46:32;;;;;;;9.75;5.30;;;;;;;6.75;100.00;100956.72;5223940;28;20123;-79
2020/12/20 02:49:03;;;;;;;7.82;5.28;;;;;;;6.65;100.00;100962.91;5223711;28;20110;-78
2020/12/20 02:51:37;;;;;;;8.93;5.35;;;;;;;6.73;100.00;100953.28;5223555;28;20025;-78
2020/12/20 02:54:08;;;;;;;9.13;5.47;;;;;;;6.70;100.00;100946.41;5222781;28;20029;-78
2020/12/20 02:56:43;;;;;;;10.75;6.18;;;;;;;6.72;100.00;100938.56;5222508;28;20509;-78
2020/12/20 02:59:13;;;;;;;9.52;5.70;;;;;;;6.70;100.00;100946.41;5222823;28;20024;-78
2020/12/20 03:01:43;;;;;;;10.43;6.07;;;;;;;6.71;100.00;100942.91;5223021;28;20035;-77
2020/12/20 03:04:14;;;;;;;9.88;5.55;;;;;;;6.72;100.00;100943.75;5222371;28;20017;-77
2020/12/20 03:06:44;;;;;;;9.07;5.55;;;;;;;6.67;100.00;100943.84;5221838;28;20020;-78
2020/12/20 03:09:14;;;;;;;9.80;5.60;;;;;;;6.73;100.00;100950.69;5222173;28;20036;-78
2020/12/20 03:11:44;;;;;;;8.50;5.40;;;;;;;6.91;100.00;100948.69;5222216;28;20534;-78
2020/12/20 03:14:15;;;;;;;8.95;5.30;;;;;;;7.06;100.00;100942.38;5222532;28;20024;-78
2020/12/20 03:16:45;;;;;;;11.98;5.30;;;;;;;7.21;100.00;100931.75;5222863;28;20037;-78
2020/12/20 03:19:15;;;;;;;9.18;5.53;;;;;;;7.17;100.00;100930.09;5222930;28;20033;-78
2020/12/20 03:21:45;;;;;;;11.55;5.10;;;;;;;6.99;100.00;100932.97;5222796;28;20032;-79
2020/12/20 03:24:16;;;;;;;8.50;5.20;;;;;;;6.86;100.00;100936.63;5222408;28;20052;-78
2020/12/20 03:26:46;;;;;;;11.40;5.97;;;;;;;6.77;100.00;100939.38;5223240;28;20021;-78
2020/12/20 03:29:16;;;;;;;7.68;5.45;;;;;;;6.72;100.00;100941.16;5222648;28;20029;-78
2020/12/20 03:31:46;;;;;;;8.38;5.78;;;;;;;6.70;100.00;100941.19;5223972;28;20082;-79
2020/12/20 03:34:17;;;;;;;10.00;5.40;;;;;;;6.70;100.00;100942.91;5222647;28;20112;-79
2020/12/20 03:36:47;;;;;;;9.48;5.57;;;;;;;6.77;100.00;100949.75;5223261;28;20368;-77
2020/12/20 03:39:17;;;;;;;8.45;5.75;;;;;;;6.75;100.00;100951.53;5224319;28;20036;-78
2020/12/20 03:41:48;;;;;;;9.93;6.25;;;;;;;6.73;100.00;100948.94;5226713;28;20051;-78
2020/12/20 03:44:18;;;;;;;9.63;6.40;;;;;;;6.78;100.00;100952.31;5226536;28;20028;-78
2020/12/20 03:46:48;;;;;;;7.68;5.82;;;;;;;6.82;100.00;100946.22;5226952;28;20032;-78
2020/12/20 03:49:19;;;;;;;9.68;5.85;;;;;;;7.04;100.00;100938.94;5227186;28;20079;-78
2020/12/20 03:51:49;;;;;;;8.73;5.65;;;;;;;7.02;100.00;100935.50;5227013;28;20021;-78
2020/12/20 03:54:19;;;;;;;8.45;5.30;;;;;;;6.94;100.00;100942.59;5226704;28;20029;-78
2020/12/20 03:56:52;;;;;;;8.00;5.15;;;;;;;7.08;100.00;100946.69;5226432;28;20057;-77
2020/12/20 03:59:22;;;;;;;7.63;4.95;;;;;;;6.93;100.00;100944.31;5226848;28;20025;-77
2020/12/20 04:01:52;;;;;;;8.95;5.38;;;;;;;6.93;100.00;100940.88;5227012;28;20509;-78
2020/12/20 04:04:23;;;;;;;11.32;5.45;;;;;;;6.71;100.00;100940.31;5225721;28;20516;-78
2020/12/20 04:06:53;;;;;;;8.85;5.47;;;;;;;6.91;100.00;100947.84;5226305;28;20052;-78
2020/12/20 04:09:23;;;;;;;7.90;5.93;;;;;;;6.78;100.00;100941.09;5225774;28;20048;-79
2020/12/20 04:11:53;;;;;;;8.25;5.53;;;;;;;6.73;100.00;100937.72;5226541;28;20044;-78
2020/12/20 04:14:24;;;;;;;8.48;6.07;;;;;;;6.62;100.00;100944.78;5228173;28;20039;-77
2020/12/20 04:16:54;;;;;;;9.07;6.00;;;;;;;6.54;100.00;100941.41;5230458;28;20478;-80
2020/12/20 04:19:24;;;;;;;9.07;6.00;;;;;;;6.49;100.00;100943.22;5230787;28;20483;-77
2020/12/20 04:21:55;;;;;;;9.88;5.68;;;;;;;6.43;100.00;100948.50;5230287;28;20036;-78
2020/12/20 04:24:25;;;;;;;11.18;6.35;;;;;;;6.43;100.00;100944.16;5229714;28;20045;-78
2020/12/20 04:26:55;;;;;;;10.88;7.25;;;;;;;6.37;100.00;100943.38;5230950;28;20028;-78
2020/12/20 04:29:25;;;;;;;9.27;5.53;;;;;;;6.73;100.00;100935.13;5232327;28;20494;-78
2020/12/20 04:31:56;;;;;;;10.73;6.60;;;;;;;6.64;100.00;100935.22;5232875;28;20028;-79
2020/12/20 04:34:26;;;;;;;8.73;6.00;;;;;;;6.60;100.00;100943.94;5233314;28;20083;-80
2020/12/20 04:36:56;;;;;;;8.55;6.32;;;;;;;6.60;100.00;100947.38;5235293;28;20021;-79
2020/12/20 04:39:27;;;;;;;7.68;5.70;;;;;;;6.59;100.00;100939.63;5235389;28;20031;-80
2020/12/20 04:41:59;;;;;;;10.65;6.45;;;;;;;6.53;100.00;100945.78;5233710;28;20025;-78
2020/12/20 04:44:30;;;;;;;9.25;6.35;;;;;;;6.51;100.00;100947.53;5225657;28;20024;-77
2020/12/20 04:47:02;;;;;;;8.82;6.25;;;;;;;6.49;100.00;100943.22;5226418;28;20017;-77
2020/12/20 04:49:34;;;;;;;12.13;5.97;;;;;;;6.49;100.00;100944.09;5225536;28;20078;-78
2020/12/20 04:52:06;;;;;;;11.45;6.30;;;;;;;6.55;100.00;100943.13;5226173;28;20105;-78
2020/12/20 04:54:38;;;;;;;8.48;6.30;;;;;;;6.58;100.00;100940.53;5225216;28;20049;-78
2020/12/20 04:57:09;;;;;;;7.78;5.68;;;;;;;6.84;100.00;100938.41;5225843;28;20021;-78
2020/12/20 04:59:40;;;;;;;7.45;5.35;;;;;;;6.94;100.00;100946.03;5225472;28;20047;-78
2020/12/20 05:02:10;;;;;;;8.60;5.50;;;;;;;6.71;100.00;100947.22;5225617;28;20120;-77
2020/12/20 05:04:40;;;;;;;7.47;5.60;;;;;;;6.55;100.00;100937.94;5225960;28;20108;-77
2020/12/20 05:07:11;;;;;;;8.18;5.93;;;;;;;6.49;100.00;100932.84;5223954;28;20030;-77
2020/12/20 05:09:48;;;;;;;9.20;6.38;;;;;;;6.27;100.00;100936.59;5225739;28;20163;-78
2020/12/20 05:12:28;;;;;;;8.60;5.70;;;;;;;6.13;100.00;100939.38;5224879;28;20482;-77
2020/12/20 05:15:15;;;;;;;8.77;6.00;;;;;;;6.08;100.00;100929.91;5225056;28;20041;-77
2020/12/20 05:17:46;;;;;;;9.85;6.53;;;;;;;6.06;100.00;100942.91;5225155;28;20111;-78
2020/12/20 05:20:38;;;;;;;10.52;6.38;;;;;;;6.10;100.00;100935.94;5224599;28;20646;-77
2020/12/20 05:23:10;;;;;;;9.68;6.72;;;;;;;6.11;100.00;100935.91;5225248;28;20458;-77
2020/12/20 05:25:42;;;;;;;10.07;6.57;;;;;;;6.11;100.00;100935.06;5225616;28;20028;-77
2020/12/20 05:28:19;;;;;;;11.55;8.05;;;;;;;6.12;100.00;100941.97;5225166;28;20411;-78
2020/12/20 05:30:50;;;;;;;11.65;7.38;;;;;;;6.32;100.00;100934.78;5222954;28;20017;-78
2020/12/20 05:33:28;;;;;;;12.10;6.95;;;;;;;6.69;100.00;100936.88;5224545;28;20109;-78
2020/12/20 05:36:00;;;;;;;11.32;7.45;;;;;;;6.62;100.00;100935.25;5225110;28;20418;-78
2020/12/20 05:38:32;;;;;;;10.73;7.07;;;;;;;6.78;100.00;100936.75;5225712;28;20122;-78
2020/12/20 05:41:03;;;;;;;10.43;7.43;;;;;;;6.82;100.00;100937.56;5224606;28;20071;-78
2020/12/20 05:43:33;;;;;;;12.00;7.60;;;;;;;6.80;100.00;100932.38;5224046;28;20024;-77
2020/12/20 05:46:03;;;;;;;9.88;6.90;;;;;;;6.85;100.00;100940.97;5223496;28;20395;-78
2020/12/20 05:48:34;;;;;;;10.25;7.00;;;;;;;6.67;100.00;100937.78;5224987;28;20079;-78
2020/12/20 05:51:08;;;;;;;9.27;6.75;;;;;;;6.51;100.00;100931.94;5225070;28;20036;-77
2020/12/20 05:53:38;;;;;;;12.65;7.78;;;;;;;6.51;100.00;100936.28;5224174;28;20033;-79
2020/12/20 05:56:17;;;;;;;10.27;7.85;;;;;;;6.42;100.00;100933.81;5224883;28;20090;-78
2020/12/20 05:58:48;;;;;;;11.20;7.45;;;;;;;6.54;100.00;100949.19;5224458;28;20032;-78
2020/12/20 06:01:20;;;;;;;10.30;7.55;;;;;;;6.53;100.00;100944.91;5223619;28;20078;-78
2020/12/20 06:03:50;;;;;;;11.60;7.55;;;;;;;6.39;100.00;100942.50;5223630;28;20071;-78
2020/12/20 06:06:26;;;;;;;11.50;7.82;;;;;;;6.29;100.00;100934.84;5223406;28;20044;-78
2020/12/20 06:09:02;;;;;;;9.85;7.38;;;;;;;6.26;100.00;100950.47;5225194;28;20025;-77
2020/12/20 06:11:33;;;;;;;9.07;7.10;;;;;;;6.35;100.00;100938.22;5226165;28;20037;-79
2020/12/20 06:14:06;;;;;;;11.95;7.90;;;;;;;6.28;100.00;100948.69;5223951;28;20068;-78
2020/12/20 06:16:40;;;;;;;10.73;7.45;;;;;;;6.36;100.00;100955.50;5225006;28;20021;-77
2020/12/20 06:19:21;;;;;;;12.60;7.55;;;;;;;6.33;100.00;100957.28;5225220;28;20021;-78
2020/12/20 06:22:02;;;;;;;13.02;8.98;;;;;;;6.22;100.00;100954.81;5223460;28;20479;-78
2020/12/20 06:24:36;;;;;;;13.38;8.23;;;;;;;6.56;100.00;100966.50;5222412;28;20527;-77
2020/12/20 06:27:13;;;;;;;11.95;7.93;;;;;;;6.50;100.00;100973.50;5224352;28;20372;-78
2020/12/20 06:29:46;;;;;;;13.35;8.93;;;;;;;6.41;100.00;100960.66;5225093;28;20390;-78
2020/12/20 06:32:22;;;;;;;10.02;7.65;;;;;;;6.42;100.00;100968.41;5224844;28;20040;-79
2020/12/20 06:34:54;;;;;;;13.30;7.90;;;;;;;6.37;100.00;100959.81;5224803;28;20028;-78
2020/12/20 06:37:24;;;;;;;12.27;8.10;;;;;;;6.66;100.00;100960.31;5224598;28;20029;-77
2020/12/20 06:39:54;;;;;;;14.18;8.40;;;;;;;6.64;100.00;100954.28;5224238;28;20032;-78
2020/12/20 06:42:36;;;;;;;10.07;7.32;;;;;;;7.02;100.00;100962.38;5225013;28;20020;-78
2020/12/20 06:45:20;;;;;;;12.90;7.63;;;;;;;6.93;100.00;100969.44;5224338;28;20391;-79
2020/12/20 06:48:01;;;;;;;10.20;7.28;;;;;;;6.86;100.00;100975.59;5225022;28;20021;-78
2020/12/20 06:50:42;;;;;;;10.88;7.85;;;;;;;6.67;100.00;100980.19;5223874;28;20028;-78
2020/12/20 06:53:14;;;;;;;11.30;8.38;;;;;;;6.58;100.00;100980.31;5224757;28;20031;-77
2020/12/20 06:55:45;;;;;;;11.80;7.97;;;;;;;6.51;100.00;100983.00;5223783;28;20033;-77
2020/12/20 06:58:17;;;;;;;11.50;8.60;;;;;;;6.48;100.00;100978.72;5223783;28;20098;-79
2020/12/20 07:00:52;;;;;;;10.55;7.78;;;;;;;6.72;100.00;100981.00;5222612;28;20703;-77
2020/12/20 07:03:25;;;;;;;12.30;7.50;;;;;;;6.97;100.00;100971.97;5225116;28;20055;-78
2020/12/20 07:05:56;;;;;;;11.13;8.13;;;;;;;7.02;100.00;100966.69;5224882;28;20013;-78
2020/12/20 07:08:28;;;;;;;10.55;7.35;;;;;;;6.91;100.00;100953.03;5224420;28;20025;-78
2020/12/20 07:11:00;;;;;;;15.57;8.23;;;;;;;6.67;100.00;100959.44;5224625;28;20036;-78
2020/12/20 07:13:40;;;;;;;11.35;7.88;;;;;;;6.49;100.00;100959.69;5222607;28;20402;-79
2020/12/20 07:16:19;;;;;;;10.85;7.63;;;;;;;6.49;100.00;100961.41;5204432;28;20037;-80
2020/12/20 07:19:00;;;;;;;10.05;8.00;;;;;;;6.44;100.00;100960.59;5203033;28;20079;-78
2020/12/20 07:21:58;;;;;;;11.32;8.18;;;;;;;6.32;100.00;100959.03;5201790;28;20075;-78
2020/12/20 07:24:30;;;;;;;12.30;8.15;;;;;;;6.23;100.00;100966.91;5204523;28;20032;-78
2020/12/20 07:27:03;;;;;;;12.95;8.52;;;;;;;6.14;100.00;100968.75;5223453;28;20016;-77
2020/12/20 07:29:38;;;;;;;10.68;8.70;;;;;;;6.13;100.00;100969.63;5222908;28;20039;-78
2020/12/20 07:32:09;;;;;;;13.80;8.70;;;;;;;6.25;100.00;100966.91;5221655;28;20067;-79
2020/12/20 07:34:47;;;;;;;13.75;9.80;;;;;;;6.17;100.00;100972.19;5222233;28;20025;-78
2020/12/20 07:37:17;;;;;;;12.32;8.80;;;;;;;6.16;100.00;100975.66;5223361;28;20036;-79
2020/12/20 07:39:47;;;;;;;12.93;8.93;;;;;;;6.26;100.00;100979.00;5221484;28;20461;-78
2020/12/20 07:42:17;;;;;;;13.07;9.10;;;;;;;6.32;100.00;100981.50;5222760;28;20036;-78
2020/12/20 07:44:54;;;;;;;13.68;8.77;;;;;;;6.35;100.00;100986.66;5223166;28;20037;-78
2020/12/20 07:47:24;;;;;;;14.18;9.15;;;;;;;6.34;100.00;100983.22;5223406;28;20078;-77
2020/12/20 07:49:57;;;;;;;11.30;8.75;;;;;;;6.41;100.00;100981.41;5222350;28;20398;-78
2020/12/20 07:52:27;;;;;;;13.55;9.80;;;;;;;6.35;100.00;100981.47;5223709;28;20507;-77
2020/12/20 07:54:58;;;;;;;12.57;9.57;;;;;;;6.39;100.00;100972.78;5223033;28;20064;-77
2020/12/20 07:57:29;;;;;;;16.90;10.52;;;;;;;6.38;100.00;100966.72;5223657;28;20029;-77
2020/12/20 08:00:05;;;;;;;13.95;10.18;;;;;;;6.41;100.00;100976.22;5223543;28;20021;-78
2020/12/20 08:02:35;;;;;;;15.73;10.52;;;;;;;6.47;100.00;100982.19;5222683;28;20382;-77
2020/12/20 08:05:10;;;;;;;14.95;9.82;;;;;;;6.54;100.00;100982.94;5221209;28;20029;-78
2020/12/20 08:07:40;;;;;;;15.45;10.02;;;;;;;6.65;100.00;100973.31;5220321;28;20498;-78
2020/12/20 08:10:10;;;;;;;14.93;9.43;;;;;;;6.79;100.00;100969.63;5221398;28;20033;-78
2020/12/20 08:12:41;;;;;;;15.98;9.70;;;;;;;6.82;100.00;100976.53;5222717;28;20510;-78
2020/12/20 08:15:11;;;;;;;14.68;9.48;;;;;;;6.77;100.00;100980.94;5222487;28;20025;-78
2020/12/20 08:17:41;;;;;;;13.25;9.30;;;;;;;6.74;100.00;100981.81;5223146;28;20031;-78
2020/12/20 08:20:12;;;;;;;12.00;9.15;;;;;;;6.95;100.00;100975.47;5222412;28;20108;-78
2020/12/20 08:22:44;;;;;;;12.60;9.30;;;;;;;6.96;100.00;100978.03;5221528;28;20031;-79
2020/12/20 08:25:15;;;;;;;14.05;9.48;;;;;;;6.99;100.00;100977.13;5223843;28;20387;-79
2020/12/20 08:27:46;;;;;;;12.77;9.32;;;;;;;6.84;100.00;100982.56;5227734;28;20053;-77
2020/12/20 08:30:16;;;;;;;13.93;9.15;;;;;;;6.77;100.00;100991.31;5228264;28;20037;-77
2020/12/20 08:32:46;;;;;;;12.75;9.50;;;;;;;6.74;100.00;100991.38;5227380;28;20060;-77
2020/12/20 08:35:20;;;;;;;11.95;9.25;;;;;;;6.82;100.00;100999.91;5227947;28;20523;-78
2020/12/20 08:37:53;;;;;;;13.80;9.25;;;;;;;6.89;100.00;100993.72;5224967;28;20029;-78
2020/12/20 08:40:24;;;;;;;15.35;9.82;;;;;;;6.71;100.00;100996.59;5229958;28;20063;-77
2020/12/20 08:42:58;;;;;;;14.75;9.35;;;;;;;6.90;100.00;100992.88;5229906;28;20490;-77
2020/12/20 08:45:28;;;;;;;13.88;9.73;;;;;;;6.80;100.00;100991.28;5229058;28;20044;-78
2020/12/20 08:48:00;;;;;;;13.40;9.35;;;;;;;6.81;100.00;100993.00;5229157;28;20017;-78
2020/12/20 08:50:31;;;;;;;14.15;10.00;;;;;;;6.89;100.00;100996.31;5230764;28;20063;-78
2020/12/20 08:53:07;;;;;;;14.23;9.77;;;;;;;6.93;100.00;101000.63;5230555;28;20055;-78
2020/12/20 08:55:37;;;;;;;12.90;10.00;;;;;;;6.90;100.00;101000.66;5230831;28;20021;-78
2020/12/20 08:58:08;;;;;;;14.65;9.65;;;;;;;7.02;100.00;101014.34;5229821;28;20029;-78
2020/12/20 09:00:39;;;;;;;15.02;9.75;;;;;;;6.97;100.00;101015.28;5230081;28;20058;-79
2020/12/20 09:03:09;;;;;;;13.65;9.95;;;;;;;7.05;100.00;101026.41;5231844;28;20078;-79
2020/12/20 09:05:39;;;;;;;17.60;10.63;;;;;;;7.02;100.00;101029.06;5232856;28;20029;-79
2020/12/20 09:08:09;;;;;;;14.30;9.93;;;;;;;6.95;100.00;101017.88;5233797;28;20036;-79
2020/12/20 09:10:40;;;;;;;14.75;9.70;;;;;;;7.02;100.00;101027.34;5232876;28;20057;-79
2020/12/20 09:13:10;;;;;;;15.32;10.68;;;;;;;7.06;100.00;101026.41;5232883;28;20037;-79
2020/12/20 09:15:42;;;;;;;16.17;10.13;;;;;;;7.04;100.00;101017.78;5229944;28;20056;-79
2020/12/20 09:18:21;;;;;;;14.75;9.82;;;;;;;7.00;100.00;101013.50;5229424;28;20382;-78
2020/12/20 09:20:51;;;;;;;14.68;10.18;;;;;;;7.06;100.00;101021.22;5231041;28;20063;-78
2020/12/20 09:23:23;;;;;;;13.23;9.60;;;;;;;7.07;100.00;101025.53;5230056;28;20037;-78
2020/12/20 09:26:01;;;;;;;13.52;10.15;;;;;;;7.03;100.00;101025.56;5226503;28;20028;-79
2020/12/20 09:28:33;;;;;;;15.98;10.40;;;;;;;6.95;100.00;101020.50;5227794;28;20017;-78
2020/12/20 09:31:16;;;;;;;20.02;10.77;;;;;;;6.99;100.00;101006.59;5228810;28;20032;-79
2020/12/20 09:33:48;;;;;;;15.13;11.25;;;;;;;6.96;100.00;101011.81;5225742;28;20027;-79
2020/12/20 09:36:20;;;;;;;13.95;10.32;;;;;;;7.12;100.00;101009.88;5229621;28;20028;-79
2020/12/20 09:38:54;;;;;;;15.98;10.88;;;;;;;7.03;100.00;101013.47;5229103;28;20112;-79
2020/12/20 09:41:26;;;;;;;16.45;10.25;;;;;;;7.26;100.00;101011.38;5231036;28;20029;-78
2020/12/20 09:43:58;;;;;;;16.10;11.25;;;;;;;7.30;100.00;101000.91;5227658;28;20100;-79
2020/12/20 09:46:35;;;;;;;14.60;10.20;;;;;;;7.27;100.00;101000.09;5244998;28;20021;-79
2020/12/20 09:49:05;;;;;;;15.35;10.93;;;;;;;7.35;100.00;100996.47;5233059;28;20032;-79
2020/12/20 09:51:36;;;;;;;15.93;10.30;;;;;;;7.35;100.00;101004.28;5227919;28;20471;-79
2020/12/20 09:54:06;;;;;;;16.15;11.27;;;;;;;7.28;100.00;101000.97;5228423;28;20032;-78
2020/12/20 09:56:40;;;;;;;14.95;10.60;;;;;;;7.22;100.00;101004.50;5229635;28;20063;-78
2020/12/20 09:59:10;;;;;;;16.25;11.05;;;;;;;7.42;100.00;101010.25;5229031;28;20033;-79
2020/12/20 10:01:40;;;;;;;15.82;10.95;;;;;;;7.58;100.00;101001.31;5229213;28;20467;-78
2020/12/20 10:04:11;;;;;;;15.23;10.95;;;;;;;7.61;100.00;100996.06;5228358;28;20021;-78
2020/12/20 10:06:41;;;;;;;15.18;10.77;;;;;;;7.58;100.00;100999.59;5228605;28;20099;-77
2020/12/20 10:09:11;;;;;;;17.15;11.25;;;;;;;7.52;100.00;100997.06;5248678;28;20016;-78
2020/12/20 10:11:41;;;;;;;14.02;10.70;;;;;;;7.66;100.00;100999.47;5233118;28;20736;-78
2020/12/20 10:14:12;;;;;;;16.08;11.25;;;;;;;7.67;100.00;101002.03;5226560;28;20025;-79
2020/12/20 10:16:42;;;;;;;15.77;10.35;;;;;;;7.65;100.00;100996.00;5238844;28;20082;-78
2020/12/20 10:19:12;;;;;;;15.80;11.52;;;;;;;7.56;100.00;100990.94;5234753;28;20182;-79
2020/12/20 10:21:50;;;;;;;16.90;12.10;;;;;;;7.63;100.00;100995.16;5227309;28;20028;-79
2020/12/20 10:24:20;;;;;;;17.00;11.60;;;;;;;7.85;100.00;100990.44;5224251;28;20471;-79
2020/12/20 10:26:50;;;;;;;16.80;10.63;;;;;;;7.73;100.00;100996.69;5227690;28;20021;-78
2020/12/20 10:29:21;;;;;;;15.27;10.77;;;;;;;7.79;100.00;100994.00;5227648;28;20024;-79
2020/12/20 10:31:51;;;;;;;15.45;10.18;;;;;;;7.94;100.00;100996.34;5226795;28;20024;-78
2020/12/20 10:34:21;;;;;;;14.40;10.45;;;;;;;7.94;100.00;100991.13;5228212;28;20643;-78
2020/12/20 10:36:52;;;;;;;13.52;10.10;;;;;;;8.04;100.00;100986.63;5224294;28;20162;-79
2020/12/20 10:39:22;;;;;;;18.05;10.07;;;;;;;8.10;100.00;100987.38;5226656;28;20033;-78
2020/12/20 10:41:52;;;;;;;15.35;10.25;;;;;;;7.93;100.00;100976.41;5225333;28;20135;-79
2020/12/20 10:44:24;;;;;;;16.63;10.57;;;;;;;8.00;100.00;100983.22;5224523;28;20063;-79
2020/12/20 10:46:55;;;;;;;15.13;10.77;;;;;;;8.07;100.00;100979.59;5225991;28;20032;-79
2020/12/20 10:49:25;;;;;;;15.98;10.68;;;;;;;8.19;100.00;100975.97;5227197;28;20092;-79
2020/12/20 10:51:55;;;;;;;13.77;10.15;;;;;;;8.02;100.00;100973.63;5227299;28;20021;-79
2020/12/20 10:54:29;;;;;;;14.95;10.35;;;;;;;7.82;100.00;100972.25;5234627;28;20110;-79
2020/12/20 10:57:01;;;;;;;14.48;9.73;;;;;;;7.76;100.00;100977.59;5227519;28;20029;-78
2020/12/20 10:59:32;;;;;;;14.02;10.60;;;;;;;7.71;100.00;100971.63;5228901;28;20025;-79
2020/12/20 11:02:04;;;;;;;14.20;10.38;;;;;;;7.97;100.00;100978.06;5230398;28;20033;-78
2020/12/20 11:04:34;;;;;;;13.80;10.18;;;;;;;8.14;100.00;100970.78;5228445;28;20029;-79
2020/12/20 11:07:05;;;;;;;14.13;10.07;;;;;;;8.01;100.00;100969.31;5224814;28;20505;-78
2020/12/20 11:09:35;;;;;;;16.95;9.90;;;;;;;8.11;100.00;100963.06;5224794;28;20032;-79
2020/12/20 11:12:06;;;;;;;19.40;10.27;;;;;;;7.85;100.00;100975.69;5226721;28;20028;-80
2020/12/20 11:14:36;;;;;;;16.38;10.20;;;;;;;7.77;100.00;100971.50;5226166;28;20036;-79
2020/12/20 11:17:06;;;;;;;17.42;11.43;;;;;;;7.74;100.00;100968.97;5226814;28;20439;-80
2020/12/20 11:19:37;;;;;;;17.00;10.73;;;;;;;7.69;100.00;100965.59;5228940;28;20060;-79
2020/12/20 11:22:07;;;;;;;15.40;11.13;;;;;;;7.62;100.00;100969.16;5228853;28;20025;-78
2020/12/20 11:24:37;;;;;;;18.83;12.23;;;;;;;7.51;100.00;100969.34;5225538;28;20378;-79
2020/12/20 11:27:08;;;;;;;18.35;11.52;;;;;;;7.60;100.00;100969.22;5226628;28;20764;-80
2020/12/20 11:29:39;;;;;;;20.95;12.68;;;;;;;7.52;100.00;100968.47;5227297;28;20017;-79
2020/12/20 11:32:09;;;;;;;20.23;12.40;;;;;;;7.50;100.00;100972.84;5226255;28;20032;-78
2020/12/20 11:34:39;;;;;;;19.02;12.63;;;;;;;7.57;100.00;100971.88;5226888;28;20481;-78
2020/12/20 11:37:10;;;;;;;18.92;12.60;;;;;;;7.51;100.00;100969.34;5227649;28;20032;-77
2020/12/20 11:39:40;;;;;;;19.38;13.13;;;;;;;7.52;100.00;100978.88;5227973;28;20574;-78